createdAt,value
2023-02-17T00:04:26.175Z,101390.28
2023-02-17T00:09:28.868Z,101378.56
2023-02-17T00:14:32.786Z,101367.97
2023-02-17T00:19:35.258Z,101365.25
2023-02-17T00:24:39.661Z,101365.13
2023-02-17T00:29:43.553Z,101362.50
2023-02-17T00:34:46.195Z,101356.94
2023-02-17T00:39:48.765Z,101354.22
2023-02-17T00:44:52.590Z,101350.66
2023-02-17T00:49:55.102Z,101347.03
2023-02-17T00:54:57.628Z,101351.47
2023-02-17T01:00:01.422Z,101348.75
2023-02-17T01:05:04.001Z,101342.59
2023-02-17T01:10:07.708Z,101328.59
2023-02-17T01:15:12.288Z,101309.25
2023-02-17T01:20:15.246Z,101298.56
2023-02-17T01:25:17.858Z,101291.66
2023-02-17T01:30:22.023Z,101276.75
2023-02-17T01:35:24.621Z,101258.31
2023-02-17T01:40:27.217Z,101247.97
2023-02-17T01:45:42.882Z,101240.91
2023-02-17T01:50:48.016Z,101233.75
2023-02-17T01:55:51.102Z,101225.78
2023-02-17T02:01:00.385Z,101218.88
2023-02-17T02:06:07.292Z,101223.16
2023-02-17T02:11:09.920Z,101205.56
2023-02-17T02:16:21.251Z,101187.38
2023-02-17T02:21:52.331Z,101182.25
2023-02-17T02:27:19.185Z,101164.97
2023-02-17T02:32:40.519Z,101152.00
2023-02-17T02:37:51.299Z,101151.00
2023-02-17T02:42:55.350Z,101157.09
2023-02-17T02:48:00.064Z,101157.09
2023-02-17T02:53:24.488Z,101142.31
2023-02-17T02:58:34.110Z,101123.22
2023-02-17T03:03:47.843Z,101104.13
2023-02-17T03:08:54.883Z,101113.91
2023-02-17T03:14:01.985Z,101105.25
2023-02-17T03:19:06.086Z,101105.34
2023-02-17T03:24:09.583Z,101110.84
2023-02-17T03:29:12.297Z,101096.16
2023-02-17T03:34:16.206Z,101084.22
2023-02-17T03:39:18.692Z,101074.75
2023-02-17T03:44:21.342Z,101075.75
2023-02-17T03:49:25.240Z,101061.19
2023-02-17T03:54:28.291Z,101065.75
2023-02-17T03:59:31.129Z,101053.66
2023-02-17T04:04:36.221Z,101053.78
2023-02-17T04:09:38.726Z,101061.16
2023-02-17T04:14:41.220Z,101048.19
2023-02-17T04:19:45.082Z,101041.47
2023-02-17T04:24:47.573Z,101036.34
2023-02-17T04:29:50.068Z,101032.03
2023-02-17T04:34:53.874Z,101026.00
2023-02-17T04:39:56.418Z,101022.31
2023-02-17T04:44:58.905Z,101038.41
2023-02-17T04:50:02.773Z,101031.75
2023-02-17T04:55:06.248Z,101025.06
2023-02-17T05:00:10.560Z,101019.91
2023-02-17T05:05:15.214Z,101000.47
2023-02-17T05:10:19.260Z,100981.34
2023-02-17T05:15:21.775Z,100987.59
2023-02-17T05:20:25.587Z,100984.28
2023-02-17T05:25:28.137Z,100966.06
2023-02-17T05:30:30.703Z,100957.31
2023-02-17T05:35:36.488Z,100951.47
2023-02-17T05:40:39.017Z,100951.59
2023-02-17T05:45:41.501Z,100952.78
2023-02-17T05:50:45.468Z,100945.25
2023-02-17T05:55:48.849Z,100948.88
2023-02-17T06:00:51.431Z,100931.78
2023-02-17T06:05:55.263Z,100925.91
2023-02-17T06:10:57.971Z,100910.19
2023-02-17T06:16:01.810Z,100897.19
2023-02-17T06:21:06.311Z,100886.22
2023-02-17T06:26:08.919Z,100885.53
2023-02-17T06:31:11.604Z,100884.81
2023-02-17T06:36:15.548Z,100888.53
2023-02-17T06:41:18.059Z,100882.41
2023-02-17T06:46:20.558Z,100873.94
2023-02-17T06:51:24.404Z,100867.16
2023-02-17T06:56:26.917Z,100856.69
2023-02-17T07:01:29.410Z,100846.22
2023-02-17T07:06:33.368Z,100848.13
2023-02-17T07:11:36.156Z,100831.81
2023-02-17T07:16:39.421Z,100824.22
2023-02-17T07:21:44.475Z,100820.91
2023-02-17T07:26:47.001Z,100801.94
2023-02-17T07:31:49.636Z,100791.66
2023-02-17T07:36:53.498Z,100796.00
2023-02-17T07:42:00.539Z,100770.69
2023-02-17T07:47:03.038Z,100767.56
2023-02-17T07:52:07.278Z,100766.13
2023-02-17T07:57:09.779Z,100744.41
2023-02-17T08:02:12.661Z,100751.66
2023-02-17T08:07:16.520Z,100747.53
2023-02-17T08:12:38.502Z,100740.75
2023-02-17T08:17:41.055Z,100716.53
2023-02-17T08:22:44.884Z,100707.41
2023-02-17T08:27:47.426Z,100709.28
2023-02-17T08:32:49.919Z,100689.50
2023-02-17T08:37:53.778Z,100671.41
2023-02-17T08:42:56.338Z,100665.53
2023-02-17T08:47:58.860Z,100655.31
2023-02-17T08:53:02.694Z,100634.63
2023-02-17T08:58:05.280Z,100627.09
2023-02-17T09:03:08.029Z,100632.75
2023-02-17T09:08:11.925Z,100610.41
2023-02-17T09:13:14.647Z,100605.25
2023-02-17T09:18:17.437Z,100588.94
2023-02-17T09:23:21.490Z,100577.59
2023-02-17T09:28:24.015Z,100567.31
2023-02-17T09:33:27.240Z,100553.50
2023-02-17T09:38:31.226Z,100536.94
2023-02-17T09:43:34.623Z,100539.69
2023-02-17T09:48:38.122Z,100536.50
2023-02-17T09:53:47.991Z,100543.88
2023-02-17T09:58:54.777Z,100525.75
2023-02-17T10:04:02.086Z,100512.97
2023-02-17T10:09:13.443Z,100504.59
2023-02-17T10:14:22.495Z,100483.81
2023-02-17T10:19:31.415Z,100484.72
2023-02-17T10:24:35.408Z,100474.44
2023-02-17T10:29:48.624Z,100472.88
2023-02-17T10:35:13.844Z,100464.13
2023-02-17T10:40:21.828Z,100451.94
2023-02-17T10:45:30.809Z,100440.78
2023-02-17T10:50:33.904Z,100421.66
2023-02-17T10:55:42.589Z,100417.59
2023-02-17T11:00:48.341Z,100404.78
2023-02-17T11:05:56.756Z,100409.34
2023-02-17T11:11:03.626Z,100392.16
2023-02-17T11:16:07.619Z,100393.13
2023-02-17T11:21:12.233Z,100405.50
2023-02-17T11:26:23.774Z,100397.84
2023-02-17T11:31:28.433Z,100389.28
2023-02-17T11:36:32.590Z,100377.97
2023-02-17T11:41:41.072Z,100373.75
2023-02-17T11:46:53.271Z,100369.53
2023-02-17T11:52:05.986Z,100369.75
2023-02-17T11:57:23.370Z,100342.03
2023-02-17T12:02:43.638Z,100345.69
2023-02-17T12:08:04.304Z,100332.00
2023-02-17T12:13:25.394Z,100330.56
2023-02-17T12:18:40.842Z,100327.25
2023-02-17T12:24:25.139Z,100328.47
2023-02-17T12:29:42.667Z,100309.31
2023-02-17T12:34:52.912Z,100310.38
2023-02-17T12:39:58.797Z,100326.16
2023-02-17T12:45:06.474Z,100298.03
2023-02-17T12:50:20.250Z,100303.16
2023-02-17T12:55:25.884Z,100310.16
2023-02-17T13:00:36.023Z,100300.53
2023-02-17T13:05:44.371Z,100291.84
2023-02-17T13:10:46.991Z,100291.75
2023-02-17T13:16:02.929Z,100262.19
2023-02-17T13:21:17.824Z,100270.00
2023-02-17T13:26:30.529Z,100265.09
2023-02-17T13:31:46.607Z,100263.97
2023-02-17T13:36:49.185Z,100248.25
2023-02-17T13:41:51.688Z,100248.31
2023-02-17T13:46:59.910Z,100238.78
2023-02-17T13:52:10.692Z,100238.91
2023-02-17T13:57:24.608Z,100244.41
2023-02-17T14:02:36.043Z,100228.41
2023-02-17T14:07:39.637Z,100230.44
2023-02-17T14:12:42.256Z,100229.34
2023-02-17T14:17:46.302Z,100216.34
2023-02-17T14:23:02.590Z,100198.91
2023-02-17T14:28:18.778Z,100203.28
2023-02-17T14:33:24.605Z,100208.56
2023-02-17T14:38:29.613Z,100205.13
2023-02-17T14:43:32.108Z,100228.53
2023-02-17T14:48:35.967Z,100237.50
2023-02-17T14:53:40.386Z,100245.44
2023-02-17T14:58:42.930Z,100224.03
2023-02-17T15:03:46.919Z,100224.03
2023-02-17T15:08:50.045Z,100236.00
2023-02-17T15:13:52.549Z,100241.53
2023-02-17T15:18:56.375Z,100236.72
2023-02-17T15:24:00.530Z,100255.53
2023-02-17T15:29:03.080Z,100254.94
2023-02-17T15:34:14.209Z,100244.56
2023-02-17T15:39:18.698Z,100241.50
2023-02-17T15:44:24.850Z,100261.97
2023-02-17T15:49:28.715Z,100276.53
2023-02-17T15:54:31.238Z,100265.78
2023-02-17T15:59:33.812Z,100270.56
2023-02-17T16:04:37.621Z,100281.03
2023-02-17T16:09:40.109Z,100291.41
2023-02-17T16:14:42.657Z,100312.38
2023-02-17T16:19:46.723Z,100307.72
2023-02-17T16:24:49.303Z,100321.03
2023-02-17T16:29:51.907Z,100328.50
2023-02-17T16:34:55.754Z,100342.00
2023-02-17T16:39:58.481Z,100353.72
2023-02-17T16:45:01.584Z,100363.31
2023-02-17T16:50:07.454Z,100371.28
2023-02-17T16:55:16.070Z,100392.88
2023-02-17T17:00:22.897Z,100406.22
2023-02-17T17:05:28.995Z,100422.47
2023-02-17T17:10:33.160Z,100427.41
2023-02-17T17:15:36.893Z,100419.19
2023-02-17T17:20:41.817Z,100441.41
2023-02-17T17:25:46.602Z,100423.41
2023-02-17T17:30:49.948Z,100441.34
2023-02-17T17:35:55.135Z,100436.97
2023-02-17T17:40:57.642Z,100467.78
2023-02-17T17:46:00.226Z,100468.44
2023-02-17T17:51:04.160Z,100463.38
2023-02-17T17:56:08.785Z,100469.22
2023-02-17T18:01:13.671Z,100485.38
2023-02-17T18:06:23.358Z,100500.22
2023-02-17T18:11:25.991Z,100522.53
2023-02-17T18:16:31.155Z,100510.53
2023-02-17T18:21:35.677Z,100519.03
2023-02-17T18:26:38.218Z,100532.06
2023-02-17T18:31:40.794Z,100543.59
2023-02-17T18:36:44.708Z,100547.94
2023-02-17T18:41:47.219Z,100544.88
2023-02-17T18:46:49.715Z,100573.16
2023-02-17T18:51:54.417Z,100579.31
2023-02-17T18:56:56.994Z,100592.31
2023-02-17T19:02:00.813Z,100579.13
2023-02-17T19:07:07.065Z,100609.41
2023-02-17T19:12:13.602Z,100628.41
2023-02-17T19:17:18.272Z,100640.03
2023-02-17T19:22:22.154Z,100643.59
2023-02-17T19:27:24.694Z,100643.66
2023-02-17T19:32:27.204Z,100636.53
2023-02-17T19:37:31.093Z,100636.16
2023-02-17T19:42:33.601Z,100661.97
2023-02-17T19:47:37.233Z,100661.53
2023-02-17T19:52:41.122Z,100668.22
2023-02-17T19:57:43.638Z,100660.66
2023-02-17T20:02:46.288Z,100678.44
2023-02-17T20:07:51.036Z,100688.00
2023-02-17T20:12:53.519Z,100679.94
2023-02-17T20:17:56.040Z,100698.19
2023-02-17T20:22:59.879Z,100677.53
2023-02-17T20:28:02.403Z,100691.31
2023-02-17T20:33:05.210Z,100698.78
2023-02-17T20:38:09.313Z,100730.72
2023-02-17T20:43:12.387Z,100720.38
2023-02-17T20:48:14.919Z,100730.69
2023-02-17T20:53:18.742Z,100743.25
2023-02-17T20:58:21.842Z,100752.00
2023-02-17T21:03:24.383Z,100745.34
2023-02-17T21:08:29.452Z,100758.75
2023-02-17T21:13:31.961Z,100773.16
2023-02-17T21:18:34.470Z,100758.97
2023-02-17T21:23:38.462Z,100789.56
2023-02-17T21:28:41.348Z,100794.19
2023-02-17T21:33:44.444Z,100786.75
2023-02-17T21:38:48.694Z,100804.28
2023-02-17T21:44:09.830Z,100800.84
2023-02-17T21:49:14.361Z,100807.50
2023-02-17T21:54:18.203Z,100822.09
2023-02-17T21:59:20.735Z,100820.84
2023-02-17T22:04:23.719Z,100831.88
2023-02-17T22:09:27.641Z,100841.75
2023-02-17T22:14:30.481Z,100856.84
2023-02-17T22:19:32.979Z,100847.47
2023-02-17T22:24:36.978Z,100852.59
2023-02-17T22:29:39.463Z,100871.09
2023-02-17T22:34:41.975Z,100888.41
2023-02-17T22:39:45.815Z,100906.47
2023-02-17T22:44:48.467Z,100898.13
2023-02-17T22:49:50.997Z,100938.03
2023-02-17T22:54:55.089Z,100913.00
2023-02-17T22:59:57.564Z,100928.16
2023-02-17T23:05:00.084Z,100923.53
2023-02-17T23:10:05.549Z,100927.16
2023-02-17T23:15:08.730Z,100933.63
2023-02-17T23:20:12.078Z,100925.09
2023-02-17T23:25:16.111Z,100934.47
2023-02-17T23:30:20.849Z,100942.94
2023-02-17T23:35:23.405Z,100931.22
2023-02-17T23:40:27.331Z,100940.53
2023-02-17T23:45:29.837Z,100945.28
2023-02-17T23:50:32.647Z,100953.81
2023-02-17T23:55:36.510Z,100946.91
